Terminal Aerodrome Forecast
Issued by NWS

Home | Current Version | Previous Version | Text Only | Print | Product List | Glossary Off
Versions: 1 2 3 4 5 6 7 8 9 10 11 12

247
FTUS43 KIWX 192300
TAFSBN
TAF
KSBN 192320Z 2000/2024 36008KT P6SM FEW035
     FM200600 35005KT P6SM OVC250
     FM201400 04008KT P6SM OVC100=

USA.gov is the U.S. government's official web portal to all federal, state and local government web resources and services.